createdAt,value
2019-05-20T00:00:26.071Z,12.40
2019-05-20T00:02:52.877Z,12.50
2019-05-20T00:05:19.381Z,12.50
2019-05-20T00:07:45.722Z,12.50
2019-05-20T00:10:12.292Z,12.50
2019-05-20T00:12:38.575Z,12.50
2019-05-20T00:15:05.046Z,12.60
2019-05-20T00:17:31.327Z,12.50
2019-05-20T00:19:57.597Z,12.60
2019-05-20T00:22:23.951Z,12.60
2019-05-20T00:24:50.232Z,12.50
2019-05-20T00:27:16.610Z,12.60
2019-05-20T00:29:43.217Z,12.60
2019-05-20T00:32:09.584Z,12.60
2019-05-20T00:34:36.093Z,12.50
2019-05-20T00:37:02.493Z,12.60
2019-05-20T00:39:28.767Z,12.60
2019-05-20T00:41:55.033Z,12.60
2019-05-20T00:44:21.499Z,12.60
2019-05-20T00:46:47.995Z,12.50
2019-05-20T00:49:14.425Z,12.50
2019-05-20T00:51:41.018Z,12.50
2019-05-20T00:54:07.416Z,12.50
2019-05-20T00:56:35.190Z,12.40
2019-05-20T00:59:01.786Z,12.40
2019-05-20T01:01:28.165Z,12.50
2019-05-20T01:03:54.657Z,12.50
2019-05-20T01:06:21.039Z,12.40
2019-05-20T01:08:47.528Z,12.40
2019-05-20T01:11:14.025Z,12.40
2019-05-20T01:13:40.481Z,12.40
2019-05-20T01:16:06.953Z,12.40
2019-05-20T01:18:33.446Z,12.40
2019-05-20T01:20:59.809Z,12.40
2019-05-20T01:23:26.050Z,12.40
2019-05-20T01:25:52.524Z,12.40
2019-05-20T01:28:18.903Z,12.40
2019-05-20T01:30:45.391Z,12.40
2019-05-20T01:33:14.186Z,12.40
2019-05-20T01:35:41.074Z,12.40
2019-05-20T01:38:07.495Z,12.40
2019-05-20T01:40:34.789Z,12.40
2019-05-20T01:43:01.145Z,12.50
2019-05-20T01:45:27.533Z,12.50
2019-05-20T01:47:54.085Z,12.50
2019-05-20T01:50:20.553Z,12.50
2019-05-20T01:52:47.028Z,12.50
2019-05-20T01:55:13.478Z,12.50
2019-05-20T01:57:39.975Z,12.50
2019-05-20T02:00:07.110Z,12.40
2019-05-20T02:02:33.686Z,12.40
2019-05-20T02:05:00.077Z,12.40
2019-05-20T02:07:26.430Z,12.40
2019-05-20T02:09:52.827Z,12.40
2019-05-20T02:12:19.501Z,12.40
2019-05-20T02:14:47.643Z,12.40
2019-05-20T02:17:14.158Z,12.40
2019-05-20T02:19:40.565Z,12.40
2019-05-20T02:22:07.133Z,12.40
2019-05-20T02:24:33.612Z,12.40
2019-05-20T02:26:59.974Z,12.40
2019-05-20T02:29:26.272Z,12.40
2019-05-20T02:31:52.588Z,12.30
2019-05-20T02:34:18.895Z,12.30
2019-05-20T02:36:45.375Z,12.40
2019-05-20T02:39:11.866Z,12.30
2019-05-20T02:41:38.331Z,12.40
2019-05-20T02:44:04.814Z,12.30
2019-05-20T02:46:31.285Z,12.40
2019-05-20T02:48:57.681Z,12.40
2019-05-20T02:51:28.622Z,12.40
2019-05-20T02:53:54.891Z,12.40
2019-05-20T02:56:21.276Z,12.40
2019-05-20T02:58:47.554Z,12.40
2019-05-20T03:01:13.940Z,12.40
2019-05-20T03:03:40.439Z,12.40
2019-05-20T03:06:07.136Z,12.40
2019-05-20T03:08:33.864Z,12.50
2019-05-20T03:11:00.424Z,12.60
2019-05-20T03:13:26.810Z,12.60
2019-05-20T03:15:53.266Z,12.70
2019-05-20T03:18:19.759Z,12.60
2019-05-20T03:20:46.093Z,12.60
2019-05-20T03:23:12.657Z,12.60
2019-05-20T03:25:39.132Z,12.60
2019-05-20T03:28:05.488Z,12.50
2019-05-20T03:30:31.890Z,12.50
2019-05-20T03:32:58.365Z,12.50
2019-05-20T03:35:27.151Z,12.50
2019-05-20T03:37:53.641Z,12.40
2019-05-20T03:40:19.999Z,12.40
2019-05-20T03:42:46.450Z,12.40
2019-05-20T03:45:12.982Z,12.40
2019-05-20T03:47:39.494Z,12.50
2019-05-20T03:50:06.402Z,12.50
2019-05-20T03:52:32.763Z,12.50
2019-05-20T03:54:59.169Z,12.50
2019-05-20T03:57:25.661Z,12.50
2019-05-20T03:59:51.915Z,12.60
2019-05-20T04:02:18.385Z,12.50
2019-05-20T04:05:00.670Z,12.50
2019-05-20T04:07:12.844Z,12.60
2019-05-20T04:09:39.104Z,12.70
2019-05-20T04:12:05.447Z,12.70
2019-05-20T04:14:31.722Z,12.80
2019-05-20T04:16:58.170Z,12.80
2019-05-20T04:19:24.533Z,12.90
2019-05-20T04:21:50.998Z,12.90
2019-05-20T04:24:17.491Z,12.90
2019-05-20T04:26:43.799Z,12.90
2019-05-20T04:29:10.157Z,12.90
2019-05-20T04:31:36.529Z,13.00
2019-05-20T04:34:03.022Z,13.00
2019-05-20T04:36:29.529Z,13.00
2019-05-20T04:38:56.811Z,13.00
2019-05-20T04:41:23.384Z,13.00
2019-05-20T04:43:49.856Z,13.00
2019-05-20T04:46:16.307Z,13.10
2019-05-20T04:48:42.659Z,13.10
2019-05-20T04:51:10.648Z,13.00
2019-05-20T04:53:37.005Z,13.20
2019-05-20T04:56:03.494Z,13.30
2019-05-20T04:58:29.893Z,13.40
2019-05-20T05:00:56.569Z,13.60
2019-05-20T05:03:23.366Z,13.70
2019-05-20T05:05:50.318Z,13.60
2019-05-20T05:08:17.998Z,13.80
2019-05-20T05:10:44.594Z,13.90
2019-05-20T05:13:11.034Z,13.90
2019-05-20T05:15:37.590Z,13.80
2019-05-20T05:18:04.178Z,13.70
2019-05-20T05:20:30.720Z,13.70
2019-05-20T05:22:57.238Z,13.80
2019-05-20T05:25:23.714Z,13.70
2019-05-20T05:27:50.181Z,13.60
2019-05-20T05:30:16.591Z,13.60
2019-05-20T05:32:43.517Z,13.60
2019-05-20T05:35:12.244Z,13.80
2019-05-20T05:37:38.716Z,13.80
2019-05-20T05:40:08.004Z,13.90
2019-05-20T05:42:33.771Z,13.80
2019-05-20T05:45:00.083Z,14.00
2019-05-20T05:47:26.470Z,14.20
2019-05-20T05:49:52.833Z,14.30
2019-05-20T05:52:22.461Z,14.30
2019-05-20T05:54:47.504Z,14.40
2019-05-20T05:57:13.875Z,14.60
2019-05-20T05:59:40.190Z,14.70
2019-05-20T06:02:06.586Z,15.00
2019-05-20T06:04:32.927Z,15.10
2019-05-20T06:06:59.286Z,15.00
2019-05-20T06:09:25.638Z,15.00
2019-05-20T06:11:52.135Z,15.10
2019-05-20T06:14:18.628Z,15.10
2019-05-20T06:16:45.080Z,15.20
2019-05-20T06:19:11.547Z,15.20
2019-05-20T06:21:43.084Z,15.30
2019-05-20T06:24:09.547Z,15.20
2019-05-20T06:26:35.884Z,15.10
2019-05-20T06:29:03.088Z,15.10
2019-05-20T06:31:29.663Z,15.10
2019-05-20T06:33:56.156Z,14.90
2019-05-20T06:36:27.074Z,15.00
2019-05-20T06:38:56.767Z,15.20
2019-05-20T06:41:23.112Z,15.40
2019-05-20T06:43:49.403Z,15.40
2019-05-20T06:46:15.842Z,15.60
2019-05-20T06:48:42.240Z,15.60
2019-05-20T06:51:08.699Z,15.80
2019-05-20T06:53:35.178Z,15.80
2019-05-20T06:56:01.545Z,15.70
2019-05-20T06:58:28.012Z,15.70
2019-05-20T07:00:54.411Z,15.80
2019-05-20T07:03:20.867Z,15.80
2019-05-20T07:05:47.393Z,15.60
2019-05-20T07:08:13.908Z,15.60
2019-05-20T07:10:40.393Z,15.70
2019-05-20T07:13:06.673Z,15.70
2019-05-20T07:15:33.170Z,15.70
2019-05-20T07:17:59.662Z,15.70
2019-05-20T07:20:25.965Z,15.60
2019-05-20T07:22:55.815Z,15.80
2019-05-20T07:25:20.632Z,15.80
2019-05-20T07:27:47.156Z,16.00
2019-05-20T07:30:15.845Z,16.20
2019-05-20T07:32:42.350Z,16.40
2019-05-20T07:35:09.537Z,16.40
2019-05-20T07:37:36.038Z,16.40
2019-05-20T07:40:03.482Z,16.40
2019-05-20T07:42:30.066Z,16.30
2019-05-20T07:44:56.565Z,16.30
2019-05-20T07:47:23.033Z,16.30
2019-05-20T07:49:49.831Z,16.60
2019-05-20T07:52:16.399Z,16.90
2019-05-20T07:54:44.274Z,17.00
2019-05-20T07:57:12.664Z,17.10
2019-05-20T07:59:41.041Z,17.30
2019-05-20T08:02:07.833Z,17.40
2019-05-20T08:04:34.164Z,17.50
2019-05-20T08:07:00.673Z,17.80
2019-05-20T08:09:27.099Z,17.80
2019-05-20T08:11:53.455Z,17.90
2019-05-20T08:14:20.209Z,18.60
2019-05-20T08:16:46.701Z,18.90
2019-05-20T08:19:13.220Z,18.90
2019-05-20T08:21:39.664Z,18.90
2019-05-20T08:24:06.135Z,19.60
2019-05-20T08:26:32.759Z,20.00
2019-05-20T08:28:59.593Z,19.80
2019-05-20T08:31:26.055Z,19.90
2019-05-20T08:33:52.697Z,19.80
2019-05-20T08:36:19.095Z,19.90
2019-05-20T08:38:45.500Z,19.60
2019-05-20T08:41:11.815Z,19.40
2019-05-20T08:43:38.174Z,19.30
2019-05-20T08:46:04.674Z,19.30
2019-05-20T08:48:31.200Z,19.60
2019-05-20T08:50:58.005Z,19.90
2019-05-20T08:53:24.504Z,20.50
2019-05-20T08:55:50.957Z,20.90
2019-05-20T08:58:17.386Z,21.00
2019-05-20T09:00:44.346Z,21.10
2019-05-20T09:03:10.914Z,21.30
2019-05-20T09:05:38.034Z,22.30
2019-05-20T09:08:04.479Z,23.10
2019-05-20T09:10:30.982Z,23.50
2019-05-20T09:12:57.348Z,23.80
2019-05-20T09:15:23.824Z,23.90
2019-05-20T09:17:50.267Z,24.40
2019-05-20T09:20:16.943Z,25.30
2019-05-20T09:22:43.505Z,25.40
2019-05-20T09:25:10.630Z,25.70
2019-05-20T09:27:37.499Z,25.60
2019-05-20T09:30:05.835Z,25.30
2019-05-20T09:32:32.283Z,25.20
2019-05-20T09:34:58.895Z,25.30
2019-05-20T09:37:25.366Z,25.30
2019-05-20T09:39:51.954Z,24.70
2019-05-20T09:42:18.542Z,24.90
2019-05-20T09:44:45.150Z,25.00
2019-05-20T09:47:11.658Z,25.20
2019-05-20T09:49:38.231Z,25.10
2019-05-20T09:52:04.724Z,25.20
2019-05-20T09:54:31.295Z,25.10
2019-05-20T09:56:57.681Z,24.50
2019-05-20T09:59:24.155Z,24.70
2019-05-20T10:01:50.568Z,25.20
2019-05-20T10:04:16.991Z,25.60
2019-05-20T10:06:43.476Z,26.60
2019-05-20T10:09:09.737Z,26.20
2019-05-20T10:11:36.361Z,26.70
2019-05-20T10:14:02.852Z,26.80
2019-05-20T10:16:29.387Z,27.10
2019-05-20T10:18:55.958Z,26.40
2019-05-20T10:21:22.433Z,26.10
2019-05-20T10:23:49.061Z,25.00
2019-05-20T10:26:15.446Z,24.50
2019-05-20T10:28:46.829Z,24.10
2019-05-20T10:31:10.263Z,24.20
2019-05-20T10:33:37.256Z,24.20
2019-05-20T10:36:03.866Z,24.40
2019-05-20T10:38:32.406Z,24.90
2019-05-20T10:40:58.733Z,25.20
2019-05-20T10:43:25.091Z,25.10
2019-05-20T10:45:51.516Z,25.20
2019-05-20T10:48:18.104Z,25.20
2019-05-20T10:50:44.589Z,25.30
2019-05-20T10:53:11.191Z,25.30
2019-05-20T10:55:37.546Z,25.50
2019-05-20T10:58:05.087Z,25.60
2019-05-20T11:00:31.686Z,25.60
2019-05-20T11:02:58.150Z,25.80
2019-05-20T11:05:24.649Z,26.10
2019-05-20T11:07:51.274Z,26.40
2019-05-20T11:10:17.957Z,27.10
2019-05-20T11:12:44.464Z,27.20
2019-05-20T11:15:11.017Z,27.00
2019-05-20T11:17:37.489Z,27.00
2019-05-20T11:20:05.678Z,26.90
2019-05-20T11:22:32.175Z,27.00
2019-05-20T11:24:58.702Z,27.00
2019-05-20T11:27:25.434Z,27.70
2019-05-20T11:29:51.912Z,27.70
2019-05-20T11:32:18.468Z,27.50
2019-05-20T11:34:44.948Z,27.30
2019-05-20T11:37:11.466Z,27.20
2019-05-20T11:39:37.975Z,26.80
2019-05-20T11:42:04.437Z,26.10
2019-05-20T11:44:31.047Z,26.00
2019-05-20T11:46:57.525Z,26.30
2019-05-20T11:49:23.862Z,26.80
2019-05-20T11:51:50.388Z,26.20
2019-05-20T11:54:16.888Z,26.20
2019-05-20T11:56:43.300Z,26.00
2019-05-20T11:59:09.687Z,26.10
2019-05-20T12:01:36.046Z,26.20
2019-05-20T12:04:02.722Z,26.40
2019-05-20T12:06:29.099Z,26.20
2019-05-20T12:08:58.675Z,26.00
2019-05-20T12:11:25.182Z,26.30
2019-05-20T12:13:51.713Z,25.80
2019-05-20T12:16:18.283Z,26.30
2019-05-20T12:18:45.228Z,26.50
2019-05-20T12:21:11.746Z,26.50
2019-05-20T12:23:38.130Z,26.70
2019-05-20T12:26:04.730Z,26.80
2019-05-20T12:28:31.326Z,26.90
2019-05-20T12:30:57.698Z,26.60
2019-05-20T12:33:24.038Z,26.60
2019-05-20T12:35:50.461Z,26.80
2019-05-20T12:38:16.930Z,27.00
2019-05-20T12:40:43.514Z,27.10
2019-05-20T12:43:09.788Z,27.10
2019-05-20T12:45:36.178Z,26.80
2019-05-20T12:48:02.628Z,26.70
2019-05-20T12:50:29.230Z,26.60
2019-05-20T12:52:55.640Z,26.70
2019-05-20T12:55:22.275Z,26.40
2019-05-20T12:57:48.879Z,26.10
2019-05-20T13:00:15.760Z,26.30
2019-05-20T13:02:42.605Z,26.30
2019-05-20T13:05:09.412Z,26.80
2019-05-20T13:07:35.882Z,26.60
2019-05-20T13:10:26.020Z,26.50
2019-05-20T13:12:35.490Z,26.00
2019-05-20T13:15:04.052Z,25.50
2019-05-20T13:17:30.503Z,25.50
2019-05-20T13:19:56.938Z,25.70
2019-05-20T13:22:23.371Z,25.80
2019-05-20T13:24:49.752Z,25.80
2019-05-20T13:27:16.274Z,25.50
2019-05-20T13:29:42.654Z,25.50
2019-05-20T13:32:09.186Z,25.10
2019-05-20T13:34:35.723Z,25.10
2019-05-20T13:37:02.270Z,25.00
2019-05-20T13:39:28.755Z,24.70
2019-05-20T13:41:55.040Z,24.70
2019-05-20T13:44:21.600Z,24.70
2019-05-20T13:46:47.979Z,25.00
2019-05-20T13:49:14.406Z,25.10
2019-05-20T13:51:41.047Z,25.20
2019-05-20T13:54:07.421Z,25.00
2019-05-20T13:56:34.945Z,25.00
2019-05-20T13:59:01.758Z,25.20
2019-05-20T14:01:28.316Z,25.40
2019-05-20T14:03:57.118Z,25.30
2019-05-20T14:06:23.236Z,25.30
2019-05-20T14:08:49.711Z,25.50
2019-05-20T14:11:16.122Z,25.10
2019-05-20T14:13:43.296Z,24.80
2019-05-20T14:16:09.650Z,24.80
2019-05-20T14:18:36.202Z,24.50
2019-05-20T14:21:02.795Z,24.90
2019-05-20T14:23:29.324Z,24.50
2019-05-20T14:25:57.293Z,24.50
2019-05-20T14:28:23.721Z,24.10
2019-05-20T14:30:50.177Z,24.30
2019-05-20T14:33:16.750Z,24.40
2019-05-20T14:35:43.082Z,24.30
2019-05-20T14:38:09.359Z,24.50
2019-05-20T14:40:35.755Z,24.70
2019-05-20T14:43:02.274Z,24.90
2019-05-20T14:45:28.726Z,24.60
2019-05-20T14:47:55.254Z,24.70
2019-05-20T14:50:21.869Z,24.70
2019-05-20T14:52:48.395Z,24.70
2019-05-20T14:55:14.898Z,24.40
2019-05-20T14:57:41.429Z,24.30
2019-05-20T15:00:08.494Z,24.10
2019-05-20T15:02:35.031Z,24.10
2019-05-20T15:05:01.639Z,23.70
2019-05-20T15:07:30.566Z,23.70
2019-05-20T15:09:56.811Z,23.80
2019-05-20T15:12:23.286Z,23.70
2019-05-20T15:14:49.588Z,23.90
2019-05-20T15:17:16.064Z,23.90
2019-05-20T15:19:42.574Z,24.10
2019-05-20T15:22:09.085Z,24.30
2019-05-20T15:24:35.556Z,24.50
2019-05-20T15:27:02.268Z,24.50
2019-05-20T15:29:28.760Z,24.30
2019-05-20T15:31:55.283Z,24.10
2019-05-20T15:34:21.776Z,23.90
2019-05-20T15:36:48.341Z,23.70
2019-05-20T15:39:15.145Z,23.50
2019-05-20T15:41:41.670Z,23.40
2019-05-20T15:44:08.179Z,23.30
2019-05-20T15:46:34.770Z,23.30
2019-05-20T15:49:01.250Z,23.20
2019-05-20T15:51:27.644Z,23.10
2019-05-20T15:53:54.151Z,23.00
2019-05-20T15:56:23.123Z,22.90
2019-05-20T15:58:49.498Z,22.70
2019-05-20T16:01:15.848Z,22.90
2019-05-20T16:03:43.498Z,23.00
2019-05-20T16:06:16.044Z,22.90
2019-05-20T16:08:38.395Z,22.60
2019-05-20T16:11:06.810Z,22.60
2019-05-20T16:13:33.596Z,22.50
2019-05-20T16:15:59.975Z,22.60
2019-05-20T16:18:26.331Z,22.50
2019-05-20T16:20:52.761Z,22.50
2019-05-20T16:23:19.171Z,22.60
2019-05-20T16:25:45.788Z,22.60
2019-05-20T16:28:12.251Z,22.60
2019-05-20T16:30:38.832Z,22.60
2019-05-20T16:33:05.423Z,22.70
2019-05-20T16:35:32.065Z,22.70
2019-05-20T16:37:58.709Z,22.70
2019-05-20T16:40:25.175Z,22.40
2019-05-20T16:42:51.675Z,22.20
2019-05-20T16:45:18.045Z,22.20
2019-05-20T16:47:44.568Z,22.00
2019-05-20T16:50:13.054Z,21.90
2019-05-20T16:52:39.500Z,21.80
2019-05-20T16:55:06.889Z,21.60
2019-05-20T16:57:33.407Z,21.50
2019-05-20T17:00:01.930Z,21.50
2019-05-20T17:02:28.515Z,21.50
2019-05-20T17:04:54.990Z,21.40
2019-05-20T17:07:21.467Z,21.30
2019-05-20T17:09:48.045Z,21.20
2019-05-20T17:12:14.638Z,21.10
2019-05-20T17:14:41.176Z,21.10
2019-05-20T17:17:07.549Z,21.00
2019-05-20T17:19:33.919Z,20.90
2019-05-20T17:22:00.278Z,20.90
2019-05-20T17:24:26.750Z,20.80
2019-05-20T17:26:53.135Z,20.70
2019-05-20T17:29:19.660Z,20.50
2019-05-20T17:31:46.170Z,20.50
2019-05-20T17:34:12.518Z,20.50
2019-05-20T17:36:39.219Z,20.40
2019-05-20T17:39:05.756Z,20.40
2019-05-20T17:41:32.242Z,20.30
2019-05-20T17:43:58.976Z,20.20
2019-05-20T17:46:25.434Z,20.20
2019-05-20T17:48:52.064Z,20.10
2019-05-20T17:51:18.441Z,20.10
2019-05-20T17:53:44.810Z,19.90
2019-05-20T17:56:13.787Z,19.80
2019-05-20T17:58:40.349Z,19.80
2019-05-20T18:01:15.197Z,19.80
2019-05-20T18:03:35.059Z,19.80
2019-05-20T18:06:01.596Z,19.80
2019-05-20T18:08:29.920Z,19.70
2019-05-20T18:10:56.314Z,19.70
2019-05-20T18:13:22.932Z,19.70
2019-05-20T18:15:49.550Z,19.60
2019-05-20T18:18:16.096Z,19.50
2019-05-20T18:20:42.703Z,19.60
2019-05-20T18:23:11.220Z,19.50
2019-05-20T18:25:37.982Z,19.50
2019-05-20T18:28:04.474Z,19.40
2019-05-20T18:30:30.949Z,19.40
2019-05-20T18:32:57.467Z,19.40
2019-05-20T18:35:24.002Z,19.30
2019-05-20T18:37:50.414Z,19.20
2019-05-20T18:40:16.959Z,19.30
2019-05-20T18:42:43.435Z,19.20
2019-05-20T18:45:09.911Z,19.10
2019-05-20T18:47:36.405Z,19.10
2019-05-20T18:50:06.898Z,19.10
2019-05-20T18:52:33.414Z,19.00
2019-05-20T18:54:59.900Z,19.00
2019-05-20T18:57:26.646Z,19.00
2019-05-20T18:59:53.181Z,18.90
2019-05-20T19:02:19.734Z,18.90
2019-05-20T19:04:46.153Z,18.90
2019-05-20T19:07:12.502Z,18.80
2019-05-20T19:09:38.968Z,18.70
2019-05-20T19:12:05.545Z,18.80
2019-05-20T19:14:31.922Z,18.60
2019-05-20T19:16:59.147Z,18.60
2019-05-20T19:19:25.546Z,18.60
2019-05-20T19:21:52.030Z,18.50
2019-05-20T19:24:18.300Z,18.50
2019-05-20T19:26:44.575Z,18.40
2019-05-20T19:29:11.056Z,18.30
2019-05-20T19:31:37.545Z,18.10
2019-05-20T19:34:03.905Z,17.90
2019-05-20T19:36:30.388Z,17.90
2019-05-20T19:38:56.860Z,17.90
2019-05-20T19:41:23.348Z,17.80
2019-05-20T19:43:50.236Z,17.90
2019-05-20T19:46:16.644Z,17.80
2019-05-20T19:48:45.303Z,17.70
2019-05-20T19:51:11.452Z,17.70
2019-05-20T19:53:37.887Z,17.60
2019-05-20T19:56:04.506Z,17.60
2019-05-20T19:58:31.086Z,17.60
2019-05-20T20:00:57.557Z,17.50
2019-05-20T20:03:24.073Z,17.40
2019-05-20T20:05:50.572Z,17.30
2019-05-20T20:08:17.190Z,17.30
2019-05-20T20:10:43.778Z,17.20
2019-05-20T20:13:10.249Z,17.20
2019-05-20T20:15:36.712Z,17.20
2019-05-20T20:18:03.256Z,17.20
2019-05-20T20:20:29.705Z,17.10
2019-05-20T20:22:56.289Z,17.10
2019-05-20T20:25:23.670Z,17.10
2019-05-20T20:27:50.152Z,17.00
2019-05-20T20:30:17.000Z,17.00
2019-05-20T20:32:43.548Z,16.90
2019-05-20T20:35:10.242Z,16.90
2019-05-20T20:37:37.906Z,16.70
2019-05-20T20:40:04.550Z,16.60
2019-05-20T20:42:30.934Z,16.60
2019-05-20T20:44:57.384Z,16.40
2019-05-20T20:47:24.130Z,16.30
2019-05-20T20:49:50.633Z,16.20
2019-05-20T20:52:17.126Z,16.10
2019-05-20T20:54:44.724Z,16.10
2019-05-20T20:57:11.319Z,16.10
2019-05-20T20:59:37.634Z,16.10
2019-05-20T21:02:04.086Z,15.90
2019-05-20T21:04:30.643Z,15.70
2019-05-20T21:06:57.979Z,15.70
2019-05-20T21:09:25.110Z,15.70
2019-05-20T21:11:51.713Z,15.60
2019-05-20T21:14:19.118Z,15.60
2019-05-20T21:16:45.409Z,15.60
2019-05-20T21:19:12.034Z,15.60
2019-05-20T21:21:38.610Z,15.50
2019-05-20T21:24:04.982Z,15.40
2019-05-20T21:26:31.370Z,15.40
2019-05-20T21:28:57.655Z,15.40
2019-05-20T21:31:24.183Z,15.20
2019-05-20T21:33:50.422Z,15.20
2019-05-20T21:36:16.809Z,15.20
2019-05-20T21:38:43.203Z,15.10
2019-05-20T21:41:09.684Z,15.00
2019-05-20T21:43:36.286Z,14.90
2019-05-20T21:46:02.731Z,14.90
2019-05-20T21:48:29.026Z,14.80
2019-05-20T21:50:55.409Z,14.80
2019-05-20T21:53:22.826Z,14.80
2019-05-20T21:55:49.212Z,14.80
2019-05-20T21:58:15.472Z,14.80
2019-05-20T22:00:49.405Z,14.80
2019-05-20T22:03:23.957Z,14.90
2019-05-20T22:05:44.286Z,14.90
2019-05-20T22:08:10.654Z,14.80
2019-05-20T22:10:37.121Z,14.80
2019-05-20T22:13:03.597Z,14.80
2019-05-20T22:15:30.125Z,14.80
2019-05-20T22:17:56.489Z,14.70
2019-05-20T22:20:22.863Z,14.60
2019-05-20T22:22:51.277Z,14.50
2019-05-20T22:25:17.806Z,14.40
2019-05-20T22:27:45.336Z,14.30
2019-05-20T22:30:12.184Z,14.40
2019-05-20T22:32:38.625Z,14.30
2019-05-20T22:35:05.729Z,14.20
2019-05-20T22:37:32.054Z,14.20
2019-05-20T22:39:58.473Z,14.00
2019-05-20T22:42:25.011Z,14.00
2019-05-20T22:44:51.613Z,13.90
2019-05-20T22:47:18.217Z,13.90
2019-05-20T22:49:44.487Z,13.90
2019-05-20T22:52:10.858Z,13.80
2019-05-20T22:54:37.250Z,13.90
2019-05-20T22:57:03.722Z,13.90
2019-05-20T22:59:30.115Z,14.00
2019-05-20T23:01:56.501Z,14.00
2019-05-20T23:04:22.869Z,13.90
2019-05-20T23:06:49.369Z,13.90
2019-05-20T23:09:15.863Z,13.90
2019-05-20T23:11:43.621Z,13.90
2019-05-20T23:14:10.350Z,13.90
2019-05-20T23:16:36.771Z,14.00
2019-05-20T23:19:03.338Z,14.00
2019-05-20T23:21:29.849Z,14.00
2019-05-20T23:23:56.093Z,14.00
2019-05-20T23:26:22.541Z,13.90
2019-05-20T23:28:50.926Z,13.90
2019-05-20T23:31:17.325Z,13.90
2019-05-20T23:33:43.820Z,13.90
2019-05-20T23:36:12.180Z,13.90
2019-05-20T23:38:38.657Z,13.80
2019-05-20T23:41:05.120Z,13.70
2019-05-20T23:43:31.610Z,13.70
2019-05-20T23:45:58.072Z,13.70
2019-05-20T23:48:24.696Z,13.60
2019-05-20T23:50:51.066Z,13.60
2019-05-20T23:53:17.734Z,13.60
2019-05-20T23:55:44.235Z,13.60
2019-05-20T23:58:10.619Z,13.60
